createdAt,value
2022-08-22T00:03:16.000Z,47.24
2022-08-22T00:07:35.000Z,47.24
2022-08-22T00:12:35.000Z,48.53
2022-08-22T00:17:34.000Z,48.09
2022-08-22T00:22:35.000Z,49.48
2022-08-22T00:27:35.000Z,50.27
2022-08-22T00:32:35.000Z,51.44
2022-08-22T00:37:35.000Z,51.38
2022-08-22T00:42:42.000Z,51.09
2022-08-22T00:47:35.000Z,52.05
2022-08-22T00:52:34.000Z,51.98
2022-08-22T00:57:34.000Z,52.73
2022-08-22T01:02:34.000Z,52.97
2022-08-22T01:07:47.000Z,53.66
2022-08-22T01:12:35.000Z,53.79
2022-08-22T01:17:34.000Z,54.43
2022-08-22T01:22:34.000Z,54.43
2022-08-22T01:27:36.000Z,54.38
2022-08-22T01:32:34.000Z,53.76
2022-08-22T01:37:34.000Z,54.46
2022-08-22T01:42:34.000Z,54.48
2022-08-22T01:47:35.000Z,54.29
2022-08-22T01:52:35.000Z,54.51
2022-08-22T01:57:34.000Z,54.66
2022-08-22T02:02:35.000Z,55.39
2022-08-22T02:07:42.000Z,55.71
2022-08-22T02:12:34.000Z,58.89
2022-08-22T02:17:35.000Z,57.22
2022-08-22T02:22:35.000Z,59.84
2022-08-22T02:32:35.000Z,58.05
2022-08-22T02:37:35.000Z,59.54
2022-08-22T02:42:35.000Z,58.71
2022-08-22T02:47:34.000Z,57.65
2022-08-22T02:52:35.000Z,57.53
2022-08-22T02:57:36.000Z,58.01
2022-08-22T03:02:34.000Z,59.57
2022-08-22T03:07:34.000Z,59.57
2022-08-22T03:12:35.000Z,60.25
2022-08-22T03:17:35.000Z,60.92
2022-08-22T03:22:35.000Z,60.92
2022-08-22T03:27:43.000Z,60.86
2022-08-22T03:32:34.000Z,60.09
2022-08-22T03:37:35.000Z,59.35
2022-08-22T03:42:35.000Z,58.68
2022-08-22T03:47:38.000Z,59.42
2022-08-22T03:52:35.000Z,60.66
2022-08-22T03:57:34.000Z,60.46
2022-08-22T04:02:54.000Z,61.45
2022-08-22T04:07:41.000Z,62.4
2022-08-22T04:12:34.000Z,63.09
2022-08-22T04:17:34.000Z,62.52
2022-08-22T04:22:35.000Z,60.97
2022-08-22T04:27:35.000Z,59.87
2022-08-22T04:32:34.000Z,57.42
2022-08-22T04:37:35.000Z,57.42
2022-08-22T04:42:43.000Z,53.98
2022-08-22T04:47:34.000Z,52.79
2022-08-22T04:52:39.000Z,49.9
2022-08-22T04:57:34.000Z,48.09
2022-08-22T05:02:35.000Z,47.47
2022-08-22T05:07:35.000Z,47.02
2022-08-22T05:12:39.000Z,46.19
2022-08-22T05:17:35.000Z,44.8
2022-08-22T05:22:35.000Z,43.81
2022-08-22T05:27:35.000Z,42.81
2022-08-22T05:32:35.000Z,40.79
2022-08-22T05:37:35.000Z,39.03
2022-08-22T05:42:35.000Z,37.18
2022-08-22T05:47:34.000Z,35.36
2022-08-22T05:52:38.000Z,33.79
2022-08-22T05:57:35.000Z,33.79
2022-08-22T06:02:35.000Z,33.96
2022-08-22T06:07:35.000Z,34.88
2022-08-22T06:12:35.000Z,34.68
2022-08-22T06:17:35.000Z,30.52
2022-08-22T06:22:35.000Z,29.9
2022-08-22T06:27:34.000Z,30.51
2022-08-22T06:33:09.000Z,27.87
2022-08-22T06:37:35.000Z,25.82
2022-08-22T06:42:34.000Z,24.86
2022-08-22T06:47:34.000Z,24.29
2022-08-22T06:52:34.000Z,24.2
2022-08-22T06:57:34.000Z,23.09
2022-08-22T07:02:35.000Z,23.92
2022-08-22T07:07:35.000Z,23.92
2022-08-22T07:12:34.000Z,24.53
2022-08-22T07:17:35.000Z,24.51
2022-08-22T07:22:34.000Z,22.59
2022-08-22T07:27:34.000Z,20.68
2022-08-22T07:32:35.000Z,19.9
2022-08-22T07:37:34.000Z,19.76
2022-08-22T07:42:40.000Z,20.25
2022-08-22T07:47:36.000Z,20.62
2022-08-22T07:52:34.000Z,20.58
2022-08-22T07:57:35.000Z,20.28
2022-08-22T08:02:35.000Z,18.93
2022-08-22T08:07:35.000Z,18.03
2022-08-22T08:12:35.000Z,17.44
2022-08-22T08:17:40.000Z,17.22
2022-08-22T08:22:35.000Z,17.22
2022-08-22T08:27:35.000Z,17.62
2022-08-22T08:32:34.000Z,18.01
2022-08-22T08:37:34.000Z,17.96
2022-08-22T08:42:35.000Z,18.08
2022-08-22T08:47:34.000Z,17.69
2022-08-22T08:52:35.000Z,17.38
2022-08-22T08:57:35.000Z,17.75
2022-08-22T09:02:35.000Z,17.97
2022-08-22T09:07:35.000Z,17.61
2022-08-22T09:12:35.000Z,18.5
2022-08-22T09:17:35.000Z,20.4
2022-08-22T09:22:35.000Z,21.43
2022-08-22T09:27:35.000Z,21.68
2022-08-22T09:32:35.000Z,22.1
2022-08-22T09:37:35.000Z,22.1
2022-08-22T09:42:35.000Z,22.13
2022-08-22T09:47:35.000Z,22.81
2022-08-22T09:52:45.000Z,23.42
2022-08-22T09:57:35.000Z,23.31
2022-08-22T10:02:35.000Z,23.13
2022-08-22T10:07:34.000Z,23.31
2022-08-22T10:12:35.000Z,23.25
2022-08-22T10:17:34.000Z,24.07
2022-08-22T10:22:41.000Z,24.34
2022-08-22T10:27:39.000Z,24.62
2022-08-22T10:32:37.000Z,24.09
2022-08-22T10:37:35.000Z,24.28
2022-08-22T10:42:38.000Z,24.24
2022-08-22T10:47:35.000Z,23.89
2022-08-22T10:52:34.000Z,23.89
2022-08-22T10:57:34.000Z,24.65
2022-08-22T11:02:35.000Z,24.6
2022-08-22T11:07:34.000Z,23.39
2022-08-22T11:12:45.000Z,23.68
2022-08-22T11:17:42.000Z,24.21
2022-08-22T11:22:36.000Z,24.19
2022-08-22T11:32:35.000Z,24.78
2022-08-22T11:37:53.000Z,23.68
2022-08-22T11:42:39.000Z,23.27
2022-08-22T11:47:39.000Z,23.47
2022-08-22T11:52:35.000Z,22.76
2022-08-22T11:57:35.000Z,22.16
2022-08-22T12:02:35.000Z,22.95
2022-08-22T12:07:35.000Z,22.95
2022-08-22T12:12:35.000Z,23.91
2022-08-22T12:18:06.000Z,24.46
2022-08-22T12:22:39.000Z,24.33
2022-08-22T12:27:39.000Z,23.81
2022-08-22T12:32:38.000Z,24.34
2022-08-22T12:37:34.000Z,24.14
2022-08-22T12:42:35.000Z,24.37
2022-08-22T12:47:35.000Z,24.23
2022-08-22T12:57:35.000Z,23.91
2022-08-22T13:02:35.000Z,23.58
2022-08-22T13:07:34.000Z,24.25
2022-08-22T13:12:36.000Z,24.48
2022-08-22T13:17:35.000Z,24.16
2022-08-22T13:22:35.000Z,24.57
2022-08-22T13:27:37.000Z,24.69
2022-08-22T13:32:37.000Z,24.92
2022-08-22T13:37:35.000Z,24.63
2022-08-22T13:42:41.000Z,24.89
2022-08-22T13:47:35.000Z,25.04
2022-08-22T13:52:40.000Z,25.04
2022-08-22T13:57:35.000Z,25.32
2022-08-22T14:02:41.000Z,25.65
2022-08-22T14:07:35.000Z,25.69
2022-08-22T14:12:35.000Z,25.34
2022-08-22T14:17:35.000Z,25.64
2022-08-22T14:22:42.000Z,25.69
2022-08-22T14:27:36.000Z,25.94
2022-08-22T14:32:38.000Z,25.97
2022-08-22T14:37:37.000Z,25.53
2022-08-22T14:42:36.000Z,25.85
2022-08-22T14:48:05.000Z,25.6
2022-08-22T14:52:39.000Z,25.67
2022-08-22T14:57:35.000Z,25.94
2022-08-22T15:02:34.000Z,25.86
2022-08-22T15:07:35.000Z,25.86
2022-08-22T15:12:34.000Z,26.59
2022-08-22T15:17:35.000Z,27.38
2022-08-22T15:22:37.000Z,27.83
2022-08-22T15:27:37.000Z,28.04
2022-08-22T15:32:36.000Z,28.17
2022-08-22T15:37:35.000Z,28.56
2022-08-22T15:42:35.000Z,29
2022-08-22T15:47:40.000Z,29.3
2022-08-22T15:52:36.000Z,29.6
2022-08-22T15:57:35.000Z,29.95
2022-08-22T16:02:37.000Z,30.13
2022-08-22T16:07:35.000Z,30.49
2022-08-22T16:12:35.000Z,30.61
2022-08-22T16:17:34.000Z,30.61
2022-08-22T16:22:35.000Z,31.12
2022-08-22T16:27:35.000Z,31.47
2022-08-22T16:32:34.000Z,31.91
2022-08-22T16:37:35.000Z,32.47
2022-08-22T16:42:35.000Z,32.66
2022-08-22T16:47:34.000Z,33
2022-08-22T16:52:34.000Z,33.37
2022-08-22T16:57:35.000Z,33.56
2022-08-22T17:02:35.000Z,33.76
2022-08-22T17:07:35.000Z,33.96
2022-08-22T17:12:35.000Z,34.31
2022-08-22T17:17:35.000Z,34.72
2022-08-22T17:22:39.000Z,35.23
2022-08-22T17:27:35.000Z,35.55
2022-08-22T17:32:35.000Z,35.55
2022-08-22T17:37:35.000Z,35.91
2022-08-22T17:47:35.000Z,36.75
2022-08-22T17:52:34.000Z,37.02
2022-08-22T17:57:35.000Z,37.68
2022-08-22T18:02:35.000Z,37.92
2022-08-22T18:07:34.000Z,39.09
2022-08-22T18:12:35.000Z,40.11
2022-08-22T18:17:35.000Z,40.53
2022-08-22T18:22:34.000Z,41.66
2022-08-22T18:27:45.000Z,42.49
2022-08-22T18:32:36.000Z,43.63
2022-08-22T18:37:35.000Z,44.33
2022-08-22T18:42:35.000Z,44.33
2022-08-22T18:47:34.000Z,45.52
2022-08-22T18:52:34.000Z,45.92
2022-08-22T18:57:35.000Z,46.58
2022-08-22T19:02:35.000Z,47.34
2022-08-22T19:07:35.000Z,47.08
2022-08-22T19:12:35.000Z,47.47
2022-08-22T19:17:35.000Z,48.08
2022-08-22T19:27:34.000Z,48.21
2022-08-22T19:32:35.000Z,49
2022-08-22T19:37:43.000Z,48.28
2022-08-22T19:42:34.000Z,48.39
2022-08-22T19:47:35.000Z,47.57
2022-08-22T19:52:35.000Z,47.96
2022-08-22T19:57:35.000Z,48.28
2022-08-22T20:02:35.000Z,48.67
2022-08-22T20:07:34.000Z,48.27
2022-08-22T20:12:35.000Z,48.81
2022-08-22T20:17:35.000Z,48.81
2022-08-22T20:22:35.000Z,50.22
2022-08-22T20:27:35.000Z,49.93
2022-08-22T20:32:35.000Z,49.79
2022-08-22T20:37:55.000Z,50.25
2022-08-22T20:42:35.000Z,52.22
2022-08-22T20:47:35.000Z,54.44
2022-08-22T20:57:35.000Z,57.65
2022-08-22T21:02:34.000Z,58.34
2022-08-22T21:07:35.000Z,57.87
2022-08-22T21:12:34.000Z,58.24
2022-08-22T21:17:36.000Z,58.38
2022-08-22T21:22:37.000Z,59.11
2022-08-22T21:27:35.000Z,60.09
2022-08-22T21:32:34.000Z,61.31
2022-08-22T21:37:35.000Z,61.88
2022-08-22T21:42:35.000Z,62.75
2022-08-22T21:47:41.000Z,64.37
2022-08-22T21:52:35.000Z,65.48
2022-08-22T21:57:34.000Z,66.44
2022-08-22T22:02:37.000Z,66.44
2022-08-22T22:07:35.000Z,68.28
2022-08-22T22:12:34.000Z,70.23
2022-08-22T22:17:35.000Z,72.3
2022-08-22T22:22:35.000Z,72.26
2022-08-22T22:27:34.000Z,73.92
2022-08-22T22:32:34.000Z,74.89
2022-08-22T22:37:35.000Z,75.89
2022-08-22T22:42:35.000Z,77.44
2022-08-22T22:47:35.000Z,78.91
2022-08-22T22:52:35.000Z,78.12
2022-08-22T22:57:35.000Z,77.31
2022-08-22T23:02:35.000Z,77.24
2022-08-22T23:07:36.000Z,80.17
2022-08-22T23:12:34.000Z,83.63
2022-08-22T23:17:35.000Z,83.63
2022-08-22T23:22:35.000Z,84.81
2022-08-22T23:27:34.000Z,85.78
2022-08-22T23:32:35.000Z,88.93
2022-08-22T23:37:35.000Z,91.3
2022-08-22T23:42:34.000Z,93.3
2022-08-22T23:47:35.000Z,94.11
2022-08-22T23:52:35.000Z,94.49
2022-08-22T23:57:37.000Z,94.67
